sensor_id;sensor_type;location;lat;lon;timestamp;pressure;altitude;pressure_sealevel;temperature;humidity
18749;BME280;9503;53.560;10.246;2023-02-02T07:02:26;100889.31;;;4.86;100.00
18749;BME280;9503;53.560;10.246;2023-02-02T07:04:56;100892.06;;;5.12;100.00
18749;BME280;9503;53.560;10.246;2023-02-02T07:07:31;100899.91;;;5.27;100.00
18749;BME280;9503;53.560;10.246;2023-02-02T07:09:57;100895.78;;;5.76;100.00
18749;BME280;9503;53.560;10.246;2023-02-02T07:12:24;100899.38;;;4.96;100.00
18749;BME280;9503;53.560;10.246;2023-02-02T07:14:56;100907.28;;;4.77;100.00
18749;BME280;9503;53.560;10.246;2023-02-02T07:17:25;100906.28;;;4.75;100.00
18749;BME280;9503;53.560;10.246;2023-02-02T07:19:52;100917.63;;;4.57;100.00
18749;BME280;9503;53.560;10.246;2023-02-02T07:22:20;100920.69;;;4.41;100.00
18749;BME280;9503;53.560;10.246;2023-02-02T07:24:49;100929.34;;;4.33;100.00
18749;BME280;9503;53.560;10.246;2023-02-02T07:27:17;100929.91;;;4.29;100.00
18749;BME280;9503;53.560;10.246;2023-02-02T07:29:44;100933.53;;;4.32;100.00
18749;BME280;9503;53.560;10.246;2023-02-02T07:32:11;100937.31;;;4.37;100.00
18749;BME280;9503;53.560;10.246;2023-02-02T07:34:42;100939.63;;;4.34;100.00
18749;BME280;9503;53.560;10.246;2023-02-02T07:37:13;100945.72;;;4.36;100.00
18749;BME280;9503;53.560;10.246;2023-02-02T07:39:44;100945.63;;;4.47;100.00
18749;BME280;9503;53.560;10.246;2023-02-02T07:42:12;100941.78;;;4.52;100.00
18749;BME280;9503;53.560;10.246;2023-02-02T07:44:40;100961.56;;;4.56;100.00
18749;BME280;9503;53.560;10.246;2023-02-02T07:47:12;100966.66;;;4.67;100.00
18749;BME280;9503;53.560;10.246;2023-02-02T07:50:01;100969.00;;;4.76;100.00
18749;BME280;9503;53.560;10.246;2023-02-02T07:52:33;100981.50;;;4.73;100.00
18749;BME280;9503;53.560;10.246;2023-02-02T07:55:07;100988.34;;;4.74;100.00
18749;BME280;9503;53.560;10.246;2023-02-02T07:57:42;100997.19;;;4.79;100.00
18749;BME280;9503;53.560;10.246;2023-02-02T08:00:33;100994.97;;;5.17;100.00
18749;BME280;9503;53.560;10.246;2023-02-02T08:03:09;101004.25;;;5.40;100.00
18749;BME280;9503;53.560;10.246;2023-02-02T08:05:40;101005.94;;;5.51;100.00
18749;BME280;9503;53.560;10.246;2023-02-02T08:08:08;101013.31;;;5.72;100.00
18749;BME280;9503;53.560;10.246;2023-02-02T08:10:39;101011.66;;;5.49;100.00
18749;BME280;9503;53.560;10.246;2023-02-02T08:13:09;101020.53;;;5.54;100.00
18749;BME280;9503;53.560;10.246;2023-02-02T08:15:42;101017.66;;;5.73;100.00
18749;BME280;9503;53.560;10.246;2023-02-02T08:18:15;101020.22;;;5.73;100.00
18749;BME280;9503;53.560;10.246;2023-02-02T08:20:49;101032.25;;;5.64;100.00
18749;BME280;9503;53.560;10.246;2023-02-02T08:23:21;101031.47;;;5.53;100.00
18749;BME280;9503;53.560;10.246;2023-02-02T08:25:48;101039.75;;;5.50;100.00
18749;BME280;9503;53.560;10.246;2023-02-02T08:28:15;101047.41;;;5.62;100.00
18749;BME280;9503;53.560;10.246;2023-02-02T08:30:42;101052.84;;;5.67;100.00
18749;BME280;9503;53.560;10.246;2023-02-02T08:33:09;101049.97;;;5.97;100.00
18749;BME280;9503;53.560;10.246;2023-02-02T08:35:48;101053.16;;;6.06;100.00
18749;BME280;9503;53.560;10.246;2023-02-02T08:38:19;101056.56;;;5.72;100.00
18749;BME280;9503;53.560;10.246;2023-02-02T08:40:51;101065.31;;;5.75;100.00
18749;BME280;9503;53.560;10.246;2023-02-02T08:43:21;101065.44;;;5.77;100.00
18749;BME280;9503;53.560;10.246;2023-02-02T08:45:50;101060.25;;;5.75;100.00
18749;BME280;9503;53.560;10.246;2023-02-02T08:48:22;101065.63;;;5.80;100.00
18749;BME280;9503;53.560;10.246;2023-02-02T08:51:00;101071.50;;;5.79;100.00
18749;BME280;9503;53.560;10.246;2023-02-02T08:53:31;101071.06;;;5.85;100.00
18749;BME280;9503;53.560;10.246;2023-02-02T08:55:59;101076.16;;;5.85;100.00
18749;BME280;9503;53.560;10.246;2023-02-02T08:58:29;101081.06;;;5.93;100.00
18749;BME280;9503;53.560;10.246;2023-02-02T09:01:03;101085.28;;;6.04;100.00
18749;BME280;9503;53.560;10.246;2023-02-02T09:03:36;101086.47;;;5.98;100.00
18749;BME280;9503;53.560;10.246;2023-02-02T09:06:08;101088.56;;;6.15;100.00
18749;BME280;9503;53.560;10.246;2023-02-02T09:08:45;101096.09;;;6.25;100.00
18749;BME280;9503;53.560;10.246;2023-02-02T09:11:14;101100.16;;;6.35;100.00
18749;BME280;9503;53.560;10.246;2023-02-02T09:13:42;101107.06;;;6.24;100.00
18749;BME280;9503;53.560;10.246;2023-02-02T09:16:15;101111.56;;;6.40;100.00
18749;BME280;9503;53.560;10.246;2023-02-02T09:18:47;101111.13;;;6.34;100.00
18749;BME280;9503;53.560;10.246;2023-02-02T09:21:15;101113.44;;;6.43;100.00
18749;BME280;9503;53.560;10.246;2023-02-02T09:23:46;101115.09;;;6.54;100.00
18749;BME280;9503;53.560;10.246;2023-02-02T09:26:15;101111.97;;;6.46;100.00
18749;BME280;9503;53.560;10.246;2023-02-02T09:28:45;101127.91;;;6.67;100.00
18749;BME280;9503;53.560;10.246;2023-02-02T09:31:15;101133.53;;;6.75;100.00
18749;BME280;9503;53.560;10.246;2023-02-02T09:33:43;101140.25;;;6.86;100.00
18749;BME280;9503;53.560;10.246;2023-02-02T09:36:15;101144.81;;;7.15;100.00
18749;BME280;9503;53.560;10.246;2023-02-02T09:38:47;101148.25;;;7.15;100.00
18749;BME280;9503;53.560;10.246;2023-02-02T09:44:25;101158.94;;;7.48;100.00
18749;BME280;9503;53.560;10.246;2023-02-02T09:47:10;101164.78;;;7.59;100.00
18749;BME280;9503;53.560;10.246;2023-02-02T09:50:01;101162.72;;;7.28;100.00
18749;BME280;9503;53.560;10.246;2023-02-02T09:52:33;101180.69;;;7.30;100.00
18749;BME280;9503;53.560;10.246;2023-02-02T09:55:15;101179.16;;;7.45;100.00
18749;BME280;9503;53.560;10.246;2023-02-02T09:57:57;101183.06;;;7.65;100.00
18749;BME280;9503;53.560;10.246;2023-02-02T10:00:34;101180.72;;;7.68;100.00
18749;BME280;9503;53.560;10.246;2023-02-02T10:03:14;101189.53;;;7.60;100.00
18749;BME280;9503;53.560;10.246;2023-02-02T10:06:10;101191.53;;;7.77;100.00
18749;BME280;9503;53.560;10.246;2023-02-02T10:08:49;101201.91;;;7.67;100.00
18749;BME280;9503;53.560;10.246;2023-02-02T10:11:28;101197.88;;;7.70;100.00
18749;BME280;9503;53.560;10.246;2023-02-02T10:14:14;101200.84;;;7.76;100.00
18749;BME280;9503;53.560;10.246;2023-02-02T10:16:47;101202.31;;;7.73;100.00
18749;BME280;9503;53.560;10.246;2023-02-02T10:19:15;101207.16;;;7.82;100.00
18749;BME280;9503;53.560;10.246;2023-02-02T10:21:47;101207.97;;;8.07;100.00
18749;BME280;9503;53.560;10.246;2023-02-02T10:24:24;101207.84;;;7.92;100.00
18749;BME280;9503;53.560;10.246;2023-02-02T10:26:58;101218.16;;;7.81;100.00
18749;BME280;9503;53.560;10.246;2023-02-02T10:29:31;101212.75;;;7.89;100.00
18749;BME280;9503;53.560;10.246;2023-02-02T10:32:13;101224.50;;;8.25;100.00
18749;BME280;9503;53.560;10.246;2023-02-02T10:35:02;101228.00;;;8.66;100.00
18749;BME280;9503;53.560;10.246;2023-02-02T10:37:37;101226.31;;;8.79;100.00
18749;BME280;9503;53.560;10.246;2023-02-02T10:40:17;101241.06;;;8.97;98.76
18749;BME280;9503;53.560;10.246;2023-02-02T10:42:55;101246.72;;;9.19;95.49
18749;BME280;9503;53.560;10.246;2023-02-02T10:45:50;101267.81;;;9.43;93.79
18749;BME280;9503;53.560;10.246;2023-02-02T10:48:19;101274.97;;;9.49;93.35
18749;BME280;9503;53.560;10.246;2023-02-02T10:53:29;101274.31;;;8.97;92.10
18749;BME280;9503;53.560;10.246;2023-02-02T10:55:59;101270.81;;;9.09;92.33
18749;BME280;9503;53.560;10.246;2023-02-02T10:58:43;101266.91;;;8.88;94.01
18749;BME280;9503;53.560;10.246;2023-02-02T11:01:15;101271.66;;;8.82;93.97
18749;BME280;9503;53.560;10.246;2023-02-02T11:03:43;101284.72;;;8.86;93.15
18749;BME280;9503;53.560;10.246;2023-02-02T11:06:11;101291.59;;;8.48;94.46
18749;BME280;9503;53.560;10.246;2023-02-02T11:08:56;101291.19;;;8.42;94.70
18749;BME280;9503;53.560;10.246;2023-02-02T11:11:26;101285.22;;;8.29;95.81
18749;BME280;9503;53.560;10.246;2023-02-02T11:13:58;101290.22;;;8.53;95.27
18749;BME280;9503;53.560;10.246;2023-02-02T11:16:29;101283.25;;;8.77;93.46
18749;BME280;9503;53.560;10.246;2023-02-02T11:18:59;101288.97;;;8.60;92.39
18749;BME280;9503;53.560;10.246;2023-02-02T11:21:30;101286.59;;;8.76;94.21
18749;BME280;9503;53.560;10.246;2023-02-02T11:23:59;101281.16;;;9.11;92.22
18749;BME280;9503;53.560;10.246;2023-02-02T11:26:40;101281.53;;;9.17;92.10
18749;BME280;9503;53.560;10.246;2023-02-02T11:29:23;101293.97;;;9.39;91.57
18749;BME280;9503;53.560;10.246;2023-02-02T11:31:51;101290.38;;;9.22;91.05
18749;BME280;9503;53.560;10.246;2023-02-02T11:34:21;101288.63;;;9.21;91.26
18749;BME280;9503;53.560;10.246;2023-02-02T11:36:59;101290.03;;;8.90;90.68
18749;BME280;9503;53.560;10.246;2023-02-02T11:39:26;101290.22;;;8.66;91.07
18749;BME280;9503;53.560;10.246;2023-02-02T11:42:05;101302.63;;;8.60;91.74
18749;BME280;9503;53.560;10.246;2023-02-02T11:44:34;101288.34;;;8.64;90.46
18749;BME280;9503;53.560;10.246;2023-02-02T11:47:06;101296.13;;;8.27;92.50
18749;BME280;9503;53.560;10.246;2023-02-02T11:49:40;101305.03;;;7.82;96.09
18749;BME280;9503;53.560;10.246;2023-02-02T11:52:16;101297.75;;;7.63;97.53
18749;BME280;9503;53.560;10.246;2023-02-02T11:54:46;101303.09;;;7.91;97.49
18749;BME280;9503;53.560;10.246;2023-02-02T11:57:17;101307.38;;;8.04;96.93
18749;BME280;9503;53.560;10.246;2023-02-02T11:59:48;101295.81;;;7.84;97.01
18749;BME280;9503;53.560;10.246;2023-02-02T12:02:27;101303.03;;;7.78;93.42
18749;BME280;9503;53.560;10.246;2023-02-02T12:05:13;101310.09;;;7.94;92.73
18749;BME280;9503;53.560;10.246;2023-02-02T12:07:42;101301.91;;;8.11;92.00
18749;BME280;9503;53.560;10.246;2023-02-02T12:10:23;101310.63;;;8.15;91.60
18749;BME280;9503;53.560;10.246;2023-02-02T12:12:57;101308.13;;;8.28;90.61
18749;BME280;9503;53.560;10.246;2023-02-02T12:15:36;101306.75;;;8.33;90.92
18749;BME280;9503;53.560;10.246;2023-02-02T12:18:15;101315.88;;;8.54;89.63
18749;BME280;9503;53.560;10.246;2023-02-02T12:20:51;101311.72;;;8.43;90.24
18749;BME280;9503;53.560;10.246;2023-02-02T12:23:33;101322.00;;;8.31;90.10
18749;BME280;9503;53.560;10.246;2023-02-02T12:26:14;101322.78;;;8.30;91.29
18749;BME280;9503;53.560;10.246;2023-02-02T12:31:50;101328.22;;;8.35;92.10
18749;BME280;9503;53.560;10.246;2023-02-02T12:34:29;101329.81;;;8.21;92.16
18749;BME280;9503;53.560;10.246;2023-02-02T12:37:05;101333.63;;;8.15;93.33
18749;BME280;9503;53.560;10.246;2023-02-02T12:39:49;101330.97;;;8.13;93.41
18749;BME280;9503;53.560;10.246;2023-02-02T12:42:31;101320.56;;;8.10;90.36
18749;BME280;9503;53.560;10.246;2023-02-02T12:45:22;101328.78;;;8.06;90.40
18749;BME280;9503;53.560;10.246;2023-02-02T12:48:03;101325.25;;;8.04;89.80
18749;BME280;9503;53.560;10.246;2023-02-02T12:50:38;101329.84;;;7.96;90.82
18749;BME280;9503;53.560;10.246;2023-02-02T12:53:30;101334.59;;;7.30;92.49
18749;BME280;9503;53.560;10.246;2023-02-02T12:56:09;101339.03;;;7.09;95.64
18749;BME280;9503;53.560;10.246;2023-02-02T12:58:47;101337.13;;;7.30;97.78
18749;BME280;9503;53.560;10.246;2023-02-02T13:01:27;101330.59;;;7.70;98.26
18749;BME280;9503;53.560;10.246;2023-02-02T13:04:10;101330.22;;;8.27;94.36
18749;BME280;9503;53.560;10.246;2023-02-02T13:06:57;101332.28;;;8.45;92.41
18749;BME280;9503;53.560;10.246;2023-02-02T13:09:29;101336.78;;;8.49;91.49
18749;BME280;9503;53.560;10.246;2023-02-02T13:12:01;101337.28;;;8.43;92.48
18749;BME280;9503;53.560;10.246;2023-02-02T13:14:35;101345.97;;;8.34;91.91
18749;BME280;9503;53.560;10.246;2023-02-02T13:17:07;101345.97;;;8.34;91.13
18749;BME280;9503;53.560;10.246;2023-02-02T13:19:40;101343.44;;;8.09;92.15
18749;BME280;9503;53.560;10.246;2023-02-02T13:22:17;101346.50;;;8.16;93.04
18749;BME280;9503;53.560;10.246;2023-02-02T13:24:48;101346.22;;;7.75;94.44
18749;BME280;9503;53.560;10.246;2023-02-02T13:27:18;101346.03;;;7.97;93.90
18749;BME280;9503;53.560;10.246;2023-02-02T13:29:50;101356.97;;;7.46;96.82
18749;BME280;9503;53.560;10.246;2023-02-02T13:32:23;101351.06;;;7.59;97.54
18749;BME280;9503;53.560;10.246;2023-02-02T13:34:56;101357.19;;;8.11;94.09
18749;BME280;9503;53.560;10.246;2023-02-02T13:37:27;101355.41;;;7.85;95.60
18749;BME280;9503;53.560;10.246;2023-02-02T13:40:03;101357.06;;;7.84;95.00
18749;BME280;9503;53.560;10.246;2023-02-02T13:42:39;101359.09;;;7.76;95.15
18749;BME280;9503;53.560;10.246;2023-02-02T13:45:24;101361.75;;;7.78;95.03
18749;BME280;9503;53.560;10.246;2023-02-02T13:48:07;101364.88;;;7.74;94.81
18749;BME280;9503;53.560;10.246;2023-02-02T13:50:46;101364.19;;;7.76;93.12
18749;BME280;9503;53.560;10.246;2023-02-02T13:53:38;101361.63;;;8.13;90.76
18749;BME280;9503;53.560;10.246;2023-02-02T13:56:26;101359.22;;;8.53;88.72
18749;BME280;9503;53.560;10.246;2023-02-02T13:59:09;101370.47;;;8.43;87.77
18749;BME280;9503;53.560;10.246;2023-02-02T14:01:40;101364.50;;;8.43;87.29
18749;BME280;9503;53.560;10.246;2023-02-02T14:04:19;101373.22;;;8.21;88.85
18749;BME280;9503;53.560;10.246;2023-02-02T14:06:54;101369.72;;;7.83;92.63
18749;BME280;9503;53.560;10.246;2023-02-02T14:09:24;101370.81;;;8.48;88.91
18749;BME280;9503;53.560;10.246;2023-02-02T14:11:57;101371.28;;;8.42;90.29
18749;BME280;9503;53.560;10.246;2023-02-02T14:14:24;101364.59;;;8.19;90.03
18749;BME280;9503;53.560;10.246;2023-02-02T14:17:00;101372.44;;;7.97;93.21
18749;BME280;9503;53.560;10.246;2023-02-02T14:19:48;101372.31;;;8.32;92.31
18749;BME280;9503;53.560;10.246;2023-02-02T14:22:23;101371.69;;;8.23;92.76
18749;BME280;9503;53.560;10.246;2023-02-02T14:28:13;101378.84;;;8.92;90.07
18749;BME280;9503;53.560;10.246;2023-02-02T14:34:31;101380.50;;;9.45;86.91
18749;BME280;9503;53.560;10.246;2023-02-02T14:37:32;101378.91;;;8.67;87.68
18749;BME280;9503;53.560;10.246;2023-02-02T14:40:20;101395.06;;;8.29;90.77
18749;BME280;9503;53.560;10.246;2023-02-02T14:42:58;101387.41;;;8.41;90.93
18749;BME280;9503;53.560;10.246;2023-02-02T14:45:48;101398.00;;;8.22;91.22
18749;BME280;9503;53.560;10.246;2023-02-02T14:48:35;101407.91;;;7.81;92.40
18749;BME280;9503;53.560;10.246;2023-02-02T14:51:10;101409.50;;;7.67;93.75
18749;BME280;9503;53.560;10.246;2023-02-02T14:53:46;101408.81;;;7.70;93.67
18749;BME280;9503;53.560;10.246;2023-02-02T14:56:15;101416.38;;;7.68;91.67
18749;BME280;9503;53.560;10.246;2023-02-02T14:58:44;101421.28;;;7.65;93.07
18749;BME280;9503;53.560;10.246;2023-02-02T15:01:21;101427.25;;;7.54;93.51
18749;BME280;9503;53.560;10.246;2023-02-02T15:03:53;101433.59;;;7.47;93.52
18749;BME280;9503;53.560;10.246;2023-02-02T15:06:26;101436.16;;;7.47;93.91
18749;BME280;9503;53.560;10.246;2023-02-02T15:12:23;101442.16;;;7.36;93.81
18749;BME280;9503;53.560;10.246;2023-02-02T15:14:59;101447.25;;;7.60;93.22
18749;BME280;9503;53.560;10.246;2023-02-02T15:17:39;101450.13;;;7.64;92.13
18749;BME280;9503;53.560;10.246;2023-02-02T15:20:13;101452.91;;;7.20;93.82
18749;BME280;9503;53.560;10.246;2023-02-02T15:22:50;101446.69;;;7.05;95.00
18749;BME280;9503;53.560;10.246;2023-02-02T15:25:23;101453.25;;;7.13;94.30
18749;BME280;9503;53.560;10.246;2023-02-02T15:27:56;101455.53;;;7.10;94.34
18749;BME280;9503;53.560;10.246;2023-02-02T15:30:27;101461.00;;;7.15;95.38
18749;BME280;9503;53.560;10.246;2023-02-02T15:32:54;101458.97;;;6.99;94.79
18749;BME280;9503;53.560;10.246;2023-02-02T15:35:24;101468.53;;;7.13;94.52
18749;BME280;9503;53.560;10.246;2023-02-02T15:38:04;101467.75;;;7.14;95.16
18749;BME280;9503;53.560;10.246;2023-02-02T15:40:35;101465.28;;;6.59;96.53
18749;BME280;9503;53.560;10.246;2023-02-02T15:43:05;101478.88;;;6.48;98.82
18749;BME280;9503;53.560;10.246;2023-02-02T15:45:42;101483.91;;;6.14;100.00
18749;BME280;9503;53.560;10.246;2023-02-02T15:48:24;101482.06;;;6.01;100.00
18749;BME280;9503;53.560;10.246;2023-02-02T15:50:55;101490.88;;;5.95;100.00
18749;BME280;9503;53.560;10.246;2023-02-02T15:53:25;101494.72;;;5.79;100.00
18749;BME280;9503;53.560;10.246;2023-02-02T15:55:53;101500.84;;;5.81;100.00
18749;BME280;9503;53.560;10.246;2023-02-02T15:58:25;101501.00;;;5.63;100.00
18749;BME280;9503;53.560;10.246;2023-02-02T16:00:58;101499.28;;;5.51;100.00
18749;BME280;9503;53.560;10.246;2023-02-02T16:03:31;101505.41;;;5.33;100.00
18749;BME280;9503;53.560;10.246;2023-02-02T16:05:59;101510.72;;;5.46;100.00
18749;BME280;9503;53.560;10.246;2023-02-02T16:08:27;101516.00;;;5.07;100.00
18749;BME280;9503;53.560;10.246;2023-02-02T16:11:04;101521.69;;;5.05;100.00
18749;BME280;9503;53.560;10.246;2023-02-02T16:13:33;101522.72;;;5.07;100.00
18749;BME280;9503;53.560;10.246;2023-02-02T16:16:02;101531.38;;;4.78;100.00
18749;BME280;9503;53.560;10.246;2023-02-02T16:18:30;101531.50;;;4.80;100.00
18749;BME280;9503;53.560;10.246;2023-02-02T16:21:00;101527.66;;;4.64;100.00
18749;BME280;9503;53.560;10.246;2023-02-02T16:23:32;101529.81;;;4.60;100.00
18749;BME280;9503;53.560;10.246;2023-02-02T16:26:02;101549.06;;;4.48;100.00
18749;BME280;9503;53.560;10.246;2023-02-02T16:28:30;101548.03;;;4.35;100.00
18749;BME280;9503;53.560;10.246;2023-02-02T16:30:59;101554.34;;;4.30;100.00
18749;BME280;9503;53.560;10.246;2023-02-02T16:33:37;101547.59;;;4.21;100.00
18749;BME280;9503;53.560;10.246;2023-02-02T16:36:20;101544.41;;;4.13;100.00
18749;BME280;9503;53.560;10.246;2023-02-02T16:38:47;101556.44;;;4.05;100.00
18749;BME280;9503;53.560;10.246;2023-02-02T16:41:25;101545.09;;;4.02;100.00
18749;BME280;9503;53.560;10.246;2023-02-02T16:43:52;101554.63;;;4.33;100.00
18749;BME280;9503;53.560;10.246;2023-02-02T16:46:41;101557.84;;;4.12;100.00
18749;BME280;9503;53.560;10.246;2023-02-02T16:49:14;101551.81;;;4.30;100.00
18749;BME280;9503;53.560;10.246;2023-02-02T16:51:42;101552.81;;;4.32;100.00
18749;BME280;9503;53.560;10.246;2023-02-02T16:54:16;101557.28;;;4.35;100.00
18749;BME280;9503;53.560;10.246;2023-02-02T16:56:46;101550.69;;;4.37;100.00
18749;BME280;9503;53.560;10.246;2023-02-02T16:59:17;101553.09;;;4.35;100.00
18749;BME280;9503;53.560;10.246;2023-02-02T17:01:50;101546.81;;;4.11;100.00
18749;BME280;9503;53.560;10.246;2023-02-02T17:04:19;101535.38;;;4.06;100.00
18749;BME280;9503;53.560;10.246;2023-02-02T17:06:48;101544.72;;;3.97;100.00
18749;BME280;9503;53.560;10.246;2023-02-02T17:09:18;101542.88;;;3.86;100.00
18749;BME280;9503;53.560;10.246;2023-02-02T17:11:59;101550.44;;;3.76;100.00
18749;BME280;9503;53.560;10.246;2023-02-02T17:14:30;101540.72;;;3.62;100.00
18749;BME280;9503;53.560;10.246;2023-02-02T17:17:00;101549.69;;;3.58;100.00
18749;BME280;9503;53.560;10.246;2023-02-02T17:19:28;101548.88;;;3.49;100.00
18749;BME280;9503;53.560;10.246;2023-02-02T17:21:55;101553.13;;;3.40;100.00
18749;BME280;9503;53.560;10.246;2023-02-02T17:24:23;101548.72;;;3.28;100.00
18749;BME280;9503;53.560;10.246;2023-02-02T17:26:50;101551.97;;;3.17;100.00
18749;BME280;9503;53.560;10.246;2023-02-02T17:29:17;101554.69;;;3.10;100.00
18749;BME280;9503;53.560;10.246;2023-02-02T17:31:45;101557.28;;;3.01;100.00
18749;BME280;9503;53.560;10.246;2023-02-02T17:34:13;101551.03;;;2.98;100.00
18749;BME280;9503;53.560;10.246;2023-02-02T17:36:40;101551.59;;;3.04;100.00
18749;BME280;9503;53.560;10.246;2023-02-02T17:39:08;101550.50;;;3.11;100.00
18749;BME280;9503;53.560;10.246;2023-02-02T17:41:35;101548.53;;;3.17;100.00
18749;BME280;9503;53.560;10.246;2023-02-02T17:44:03;101558.94;;;3.20;100.00
18749;BME280;9503;53.560;10.246;2023-02-02T17:46:30;101564.69;;;3.09;100.00
18749;BME280;9503;53.560;10.246;2023-02-02T17:48:57;101543.66;;;3.10;100.00
18749;BME280;9503;53.560;10.246;2023-02-02T17:51:25;101547.88;;;3.00;100.00
18749;BME280;9503;53.560;10.246;2023-02-02T17:53:54;101541.16;;;3.01;100.00
18749;BME280;9503;53.560;10.246;2023-02-02T17:56:24;101540.50;;;3.12;100.00
18749;BME280;9503;53.560;10.246;2023-02-02T17:58:50;101531.94;;;3.20;100.00
